sensor_id;sensor_type;location;lat;lon;timestamp;P1;durP1;ratioP1;P2;durP2;ratioP2
19111;SDS011;9688;51.906;8.376;2022-12-05T00:00:57;33.77;;;16.07;;
19111;SDS011;9688;51.906;8.376;2022-12-05T00:03:44;34.33;;;14.83;;
19111;SDS011;9688;51.906;8.376;2022-12-05T00:06:30;34.40;;;15.43;;
19111;SDS011;9688;51.906;8.376;2022-12-05T00:09:17;40.37;;;16.87;;
19111;SDS011;9688;51.906;8.376;2022-12-05T00:12:03;39.23;;;16.73;;
19111;SDS011;9688;51.906;8.376;2022-12-05T00:14:49;45.10;;;17.00;;
19111;SDS011;9688;51.906;8.376;2022-12-05T00:17:36;37.20;;;15.20;;
19111;SDS011;9688;51.906;8.376;2022-12-05T00:20:22;33.43;;;15.57;;
19111;SDS011;9688;51.906;8.376;2022-12-05T00:23:07;45.07;;;17.20;;
19111;SDS011;9688;51.906;8.376;2022-12-05T00:25:52;35.63;;;14.97;;
19111;SDS011;9688;51.906;8.376;2022-12-05T00:28:38;38.87;;;16.33;;
19111;SDS011;9688;51.906;8.376;2022-12-05T00:31:24;36.87;;;16.30;;
19111;SDS011;9688;51.906;8.376;2022-12-05T00:34:12;41.63;;;16.37;;
19111;SDS011;9688;51.906;8.376;2022-12-05T00:36:58;52.20;;;19.10;;
19111;SDS011;9688;51.906;8.376;2022-12-05T00:39:43;43.20;;;17.60;;
19111;SDS011;9688;51.906;8.376;2022-12-05T00:42:29;39.50;;;15.93;;
19111;SDS011;9688;51.906;8.376;2022-12-05T00:45:15;39.97;;;17.17;;
19111;SDS011;9688;51.906;8.376;2022-12-05T00:48:00;38.20;;;16.43;;
19111;SDS011;9688;51.906;8.376;2022-12-05T00:50:47;39.00;;;16.00;;
19111;SDS011;9688;51.906;8.376;2022-12-05T00:53:32;45.70;;;17.07;;
19111;SDS011;9688;51.906;8.376;2022-12-05T00:56:19;49.03;;;18.17;;
19111;SDS011;9688;51.906;8.376;2022-12-05T00:59:06;43.40;;;16.70;;
19111;SDS011;9688;51.906;8.376;2022-12-05T01:01:52;32.50;;;14.63;;
19111;SDS011;9688;51.906;8.376;2022-12-05T01:04:37;42.53;;;16.37;;
19111;SDS011;9688;51.906;8.376;2022-12-05T01:07:24;40.80;;;15.70;;
19111;SDS011;9688;51.906;8.376;2022-12-05T01:10:10;39.77;;;15.77;;
19111;SDS011;9688;51.906;8.376;2022-12-05T01:12:56;46.23;;;16.00;;
19111;SDS011;9688;51.906;8.376;2022-12-05T01:15:42;29.90;;;12.70;;
19111;SDS011;9688;51.906;8.376;2022-12-05T01:18:27;32.63;;;13.27;;
19111;SDS011;9688;51.906;8.376;2022-12-05T01:21:14;43.00;;;15.93;;
19111;SDS011;9688;51.906;8.376;2022-12-05T01:24:01;33.67;;;14.13;;
19111;SDS011;9688;51.906;8.376;2022-12-05T01:26:46;34.13;;;13.97;;
19111;SDS011;9688;51.906;8.376;2022-12-05T01:29:32;45.97;;;16.90;;
19111;SDS011;9688;51.906;8.376;2022-12-05T01:32:17;27.63;;;12.80;;
19111;SDS011;9688;51.906;8.376;2022-12-05T01:35:03;25.50;;;12.60;;
19111;SDS011;9688;51.906;8.376;2022-12-05T01:37:49;35.10;;;13.73;;
19111;SDS011;9688;51.906;8.376;2022-12-05T01:40:36;30.73;;;14.03;;
19111;SDS011;9688;51.906;8.376;2022-12-05T01:43:22;36.10;;;14.70;;
19111;SDS011;9688;51.906;8.376;2022-12-05T01:46:07;32.67;;;13.67;;
19111;SDS011;9688;51.906;8.376;2022-12-05T01:48:54;36.07;;;15.90;;
19111;SDS011;9688;51.906;8.376;2022-12-05T01:51:45;24.30;;;12.13;;
19111;SDS011;9688;51.906;8.376;2022-12-05T01:54:33;27.83;;;13.50;;
19111;SDS011;9688;51.906;8.376;2022-12-05T01:57:21;22.33;;;12.00;;
19111;SDS011;9688;51.906;8.376;2022-12-05T02:00:09;25.13;;;12.27;;
19111;SDS011;9688;51.906;8.376;2022-12-05T02:02:59;28.53;;;12.67;;
19111;SDS011;9688;51.906;8.376;2022-12-05T02:05:51;22.63;;;12.03;;
19111;SDS011;9688;51.906;8.376;2022-12-05T02:08:38;25.50;;;12.30;;
19111;SDS011;9688;51.906;8.376;2022-12-05T02:11:25;23.50;;;12.23;;
19111;SDS011;9688;51.906;8.376;2022-12-05T02:14:19;20.63;;;10.80;;
19111;SDS011;9688;51.906;8.376;2022-12-05T02:17:15;26.70;;;11.37;;
19111;SDS011;9688;51.906;8.376;2022-12-05T02:20:10;23.13;;;12.80;;
19111;SDS011;9688;51.906;8.376;2022-12-05T02:29:49;20.10;;;10.63;;
19111;SDS011;9688;51.906;8.376;2022-12-05T02:32:54;20.93;;;11.60;;
19111;SDS011;9688;51.906;8.376;2022-12-05T02:35:49;24.77;;;11.63;;
19111;SDS011;9688;51.906;8.376;2022-12-05T02:38:47;20.20;;;11.13;;
19111;SDS011;9688;51.906;8.376;2022-12-05T02:41:38;20.90;;;11.13;;
19111;SDS011;9688;51.906;8.376;2022-12-05T02:44:30;21.20;;;11.63;;
19111;SDS011;9688;51.906;8.376;2022-12-05T02:47:22;22.50;;;11.00;;
19111;SDS011;9688;51.906;8.376;2022-12-05T02:50:13;20.60;;;10.83;;
19111;SDS011;9688;51.906;8.376;2022-12-05T02:53:04;24.20;;;11.47;;
19111;SDS011;9688;51.906;8.376;2022-12-05T02:55:53;21.43;;;11.00;;
19111;SDS011;9688;51.906;8.376;2022-12-05T02:58:40;35.83;;;13.30;;
19111;SDS011;9688;51.906;8.376;2022-12-05T03:01:31;29.00;;;13.67;;
19111;SDS011;9688;51.906;8.376;2022-12-05T03:04:18;37.90;;;13.80;;
19111;SDS011;9688;51.906;8.376;2022-12-05T03:07:07;28.17;;;12.07;;
19111;SDS011;9688;51.906;8.376;2022-12-05T03:09:57;25.33;;;11.63;;
19111;SDS011;9688;51.906;8.376;2022-12-05T03:12:50;26.27;;;13.37;;
19111;SDS011;9688;51.906;8.376;2022-12-05T03:15:41;29.13;;;13.10;;
19111;SDS011;9688;51.906;8.376;2022-12-05T03:18:32;26.80;;;11.77;;
19111;SDS011;9688;51.906;8.376;2022-12-05T03:21:26;21.07;;;11.10;;
19111;SDS011;9688;51.906;8.376;2022-12-05T03:24:18;22.20;;;10.80;;
19111;SDS011;9688;51.906;8.376;2022-12-05T03:27:06;21.30;;;11.63;;
19111;SDS011;9688;51.906;8.376;2022-12-05T03:29:58;20.77;;;11.87;;
19111;SDS011;9688;51.906;8.376;2022-12-05T03:32:51;20.40;;;10.60;;
19111;SDS011;9688;51.906;8.376;2022-12-05T03:35:46;25.23;;;12.23;;
19111;SDS011;9688;51.906;8.376;2022-12-05T03:38:43;28.20;;;12.63;;
19111;SDS011;9688;51.906;8.376;2022-12-05T03:41:33;25.70;;;11.97;;
19111;SDS011;9688;51.906;8.376;2022-12-05T03:44:28;22.23;;;11.63;;
19111;SDS011;9688;51.906;8.376;2022-12-05T03:47:21;24.23;;;11.93;;
19111;SDS011;9688;51.906;8.376;2022-12-05T03:50:11;22.30;;;11.40;;
19111;SDS011;9688;51.906;8.376;2022-12-05T03:53:04;22.70;;;11.93;;
19111;SDS011;9688;51.906;8.376;2022-12-05T03:55:58;21.30;;;11.30;;
19111;SDS011;9688;51.906;8.376;2022-12-05T03:58:50;23.10;;;12.70;;
19111;SDS011;9688;51.906;8.376;2022-12-05T04:01:40;25.37;;;12.33;;
19111;SDS011;9688;51.906;8.376;2022-12-05T04:04:29;20.97;;;12.07;;
19111;SDS011;9688;51.906;8.376;2022-12-05T04:07:20;25.63;;;12.67;;
19111;SDS011;9688;51.906;8.376;2022-12-05T04:10:09;23.43;;;12.10;;
19111;SDS011;9688;51.906;8.376;2022-12-05T04:13:01;23.13;;;11.87;;
19111;SDS011;9688;51.906;8.376;2022-12-05T04:16:03;25.53;;;12.43;;
19111;SDS011;9688;51.906;8.376;2022-12-05T04:19:11;20.73;;;11.40;;
19111;SDS011;9688;51.906;8.376;2022-12-05T04:22:02;19.57;;;11.33;;
19111;SDS011;9688;51.906;8.376;2022-12-05T04:24:46;22.33;;;11.83;;
19111;SDS011;9688;51.906;8.376;2022-12-05T04:27:55;23.70;;;11.90;;
19111;SDS011;9688;51.906;8.376;2022-12-05T04:30:52;26.63;;;11.83;;
19111;SDS011;9688;51.906;8.376;2022-12-05T04:33:47;23.47;;;11.80;;
19111;SDS011;9688;51.906;8.376;2022-12-05T04:36:37;24.47;;;12.57;;
19111;SDS011;9688;51.906;8.376;2022-12-05T04:39:28;23.87;;;11.37;;
19111;SDS011;9688;51.906;8.376;2022-12-05T04:42:18;21.80;;;11.47;;
19111;SDS011;9688;51.906;8.376;2022-12-05T04:45:07;25.30;;;13.03;;
19111;SDS011;9688;51.906;8.376;2022-12-05T04:47:57;20.53;;;11.43;;
19111;SDS011;9688;51.906;8.376;2022-12-05T04:50:46;22.70;;;11.47;;
19111;SDS011;9688;51.906;8.376;2022-12-05T04:53:32;23.10;;;11.57;;
19111;SDS011;9688;51.906;8.376;2022-12-05T04:56:19;27.70;;;11.67;;
19111;SDS011;9688;51.906;8.376;2022-12-05T04:59:07;24.43;;;13.53;;
19111;SDS011;9688;51.906;8.376;2022-12-05T05:01:54;27.27;;;13.60;;
19111;SDS011;9688;51.906;8.376;2022-12-05T05:04:45;25.13;;;12.87;;
19111;SDS011;9688;51.906;8.376;2022-12-05T05:07:41;22.63;;;11.93;;
19111;SDS011;9688;51.906;8.376;2022-12-05T05:10:30;25.03;;;12.50;;
19111;SDS011;9688;51.906;8.376;2022-12-05T05:13:21;23.00;;;11.80;;
19111;SDS011;9688;51.906;8.376;2022-12-05T05:16:11;23.87;;;12.10;;
19111;SDS011;9688;51.906;8.376;2022-12-05T05:19:00;23.93;;;12.30;;
19111;SDS011;9688;51.906;8.376;2022-12-05T05:21:47;21.67;;;11.93;;
19111;SDS011;9688;51.906;8.376;2022-12-05T05:24:33;26.53;;;12.33;;
19111;SDS011;9688;51.906;8.376;2022-12-05T05:27:19;23.00;;;11.37;;
19111;SDS011;9688;51.906;8.376;2022-12-05T05:30:06;24.40;;;11.97;;
19111;SDS011;9688;51.906;8.376;2022-12-05T05:32:53;26.13;;;12.70;;
19111;SDS011;9688;51.906;8.376;2022-12-05T05:35:38;25.70;;;12.50;;
19111;SDS011;9688;51.906;8.376;2022-12-05T05:38:25;27.73;;;13.23;;
19111;SDS011;9688;51.906;8.376;2022-12-05T05:41:11;26.33;;;13.93;;
19111;SDS011;9688;51.906;8.376;2022-12-05T05:43:57;27.73;;;13.30;;
19111;SDS011;9688;51.906;8.376;2022-12-05T05:46:43;24.37;;;12.93;;
19111;SDS011;9688;51.906;8.376;2022-12-05T05:49:28;29.13;;;12.87;;
19111;SDS011;9688;51.906;8.376;2022-12-05T05:52:14;27.83;;;12.63;;
19111;SDS011;9688;51.906;8.376;2022-12-05T05:55:03;30.17;;;13.77;;
19111;SDS011;9688;51.906;8.376;2022-12-05T05:57:50;28.37;;;13.33;;
19111;SDS011;9688;51.906;8.376;2022-12-05T06:00:35;24.77;;;13.37;;
19111;SDS011;9688;51.906;8.376;2022-12-05T06:03:21;31.23;;;14.33;;
19111;SDS011;9688;51.906;8.376;2022-12-05T06:06:06;32.03;;;14.77;;
19111;SDS011;9688;51.906;8.376;2022-12-05T06:08:53;32.13;;;15.27;;
19111;SDS011;9688;51.906;8.376;2022-12-05T06:11:41;32.97;;;14.77;;
19111;SDS011;9688;51.906;8.376;2022-12-05T06:14:27;27.53;;;12.77;;
19111;SDS011;9688;51.906;8.376;2022-12-05T06:17:12;28.50;;;14.20;;
19111;SDS011;9688;51.906;8.376;2022-12-05T06:19:57;30.87;;;14.20;;
19111;SDS011;9688;51.906;8.376;2022-12-05T06:22:42;32.23;;;14.40;;
19111;SDS011;9688;51.906;8.376;2022-12-05T06:25:28;27.90;;;14.43;;
19111;SDS011;9688;51.906;8.376;2022-12-05T06:28:15;33.73;;;15.23;;
19111;SDS011;9688;51.906;8.376;2022-12-05T06:31:05;27.50;;;13.73;;
19111;SDS011;9688;51.906;8.376;2022-12-05T06:33:51;32.10;;;15.23;;
19111;SDS011;9688;51.906;8.376;2022-12-05T06:36:37;31.40;;;15.40;;
19111;SDS011;9688;51.906;8.376;2022-12-05T06:39:22;28.10;;;13.63;;
19111;SDS011;9688;51.906;8.376;2022-12-05T06:42:07;30.37;;;13.90;;
19111;SDS011;9688;51.906;8.376;2022-12-05T06:44:55;31.33;;;14.40;;
19111;SDS011;9688;51.906;8.376;2022-12-05T06:47:43;35.93;;;15.77;;
19111;SDS011;9688;51.906;8.376;2022-12-05T06:50:32;45.53;;;17.97;;
19111;SDS011;9688;51.906;8.376;2022-12-05T06:53:18;29.07;;;14.67;;
19111;SDS011;9688;51.906;8.376;2022-12-05T06:56:05;30.40;;;14.20;;
19111;SDS011;9688;51.906;8.376;2022-12-05T06:58:57;43.87;;;17.10;;
19111;SDS011;9688;51.906;8.376;2022-12-05T07:01:44;31.40;;;15.43;;
19111;SDS011;9688;51.906;8.376;2022-12-05T07:04:29;34.00;;;15.33;;
19111;SDS011;9688;51.906;8.376;2022-12-05T07:07:15;27.43;;;13.47;;
19111;SDS011;9688;51.906;8.376;2022-12-05T07:10:09;29.93;;;13.67;;
19111;SDS011;9688;51.906;8.376;2022-12-05T07:12:55;30.67;;;13.87;;
19111;SDS011;9688;51.906;8.376;2022-12-05T07:15:42;29.17;;;14.17;;
19111;SDS011;9688;51.906;8.376;2022-12-05T07:18:34;28.00;;;13.97;;
19111;SDS011;9688;51.906;8.376;2022-12-05T07:21:22;31.80;;;15.47;;
19111;SDS011;9688;51.906;8.376;2022-12-05T07:24:08;30.90;;;14.60;;
19111;SDS011;9688;51.906;8.376;2022-12-05T07:26:54;34.97;;;15.70;;
19111;SDS011;9688;51.906;8.376;2022-12-05T07:29:39;27.70;;;14.43;;
19111;SDS011;9688;51.906;8.376;2022-12-05T07:32:25;30.97;;;14.83;;
19111;SDS011;9688;51.906;8.376;2022-12-05T07:35:12;30.13;;;13.67;;
19111;SDS011;9688;51.906;8.376;2022-12-05T07:37:58;27.60;;;13.97;;
19111;SDS011;9688;51.906;8.376;2022-12-05T07:40:44;29.97;;;14.07;;
19111;SDS011;9688;51.906;8.376;2022-12-05T07:43:29;28.50;;;13.30;;
19111;SDS011;9688;51.906;8.376;2022-12-05T07:46:15;31.33;;;14.37;;
19111;SDS011;9688;51.906;8.376;2022-12-05T07:49:03;26.13;;;13.23;;
19111;SDS011;9688;51.906;8.376;2022-12-05T07:51:52;26.27;;;13.50;;
19111;SDS011;9688;51.906;8.376;2022-12-05T07:54:37;27.63;;;14.20;;
19111;SDS011;9688;51.906;8.376;2022-12-05T07:57:23;27.77;;;14.33;;
19111;SDS011;9688;51.906;8.376;2022-12-05T08:00:10;26.90;;;13.83;;
19111;SDS011;9688;51.906;8.376;2022-12-05T08:03:00;30.43;;;13.67;;
19111;SDS011;9688;51.906;8.376;2022-12-05T08:05:46;30.03;;;13.57;;
19111;SDS011;9688;51.906;8.376;2022-12-05T08:08:33;27.07;;;13.40;;
19111;SDS011;9688;51.906;8.376;2022-12-05T08:11:19;26.43;;;13.73;;
19111;SDS011;9688;51.906;8.376;2022-12-05T08:14:06;27.27;;;12.70;;
19111;SDS011;9688;51.906;8.376;2022-12-05T08:16:51;26.67;;;13.70;;
19111;SDS011;9688;51.906;8.376;2022-12-05T08:19:37;28.23;;;12.67;;
19111;SDS011;9688;51.906;8.376;2022-12-05T08:22:23;26.70;;;13.33;;
19111;SDS011;9688;51.906;8.376;2022-12-05T08:25:10;28.77;;;14.07;;
19111;SDS011;9688;51.906;8.376;2022-12-05T08:27:56;23.10;;;13.47;;
19111;SDS011;9688;51.906;8.376;2022-12-05T08:30:41;24.83;;;12.53;;
19111;SDS011;9688;51.906;8.376;2022-12-05T08:33:29;24.77;;;12.77;;
19111;SDS011;9688;51.906;8.376;2022-12-05T08:36:15;22.50;;;12.27;;
19111;SDS011;9688;51.906;8.376;2022-12-05T08:39:02;21.23;;;11.60;;
19111;SDS011;9688;51.906;8.376;2022-12-05T08:41:51;19.23;;;11.63;;
19111;SDS011;9688;51.906;8.376;2022-12-05T08:44:37;21.30;;;10.97;;
19111;SDS011;9688;51.906;8.376;2022-12-05T08:47:23;20.63;;;11.90;;
19111;SDS011;9688;51.906;8.376;2022-12-05T08:50:08;19.87;;;11.43;;
19111;SDS011;9688;51.906;8.376;2022-12-05T08:52:54;23.33;;;12.57;;
19111;SDS011;9688;51.906;8.376;2022-12-05T08:55:40;24.47;;;12.07;;
19111;SDS011;9688;51.906;8.376;2022-12-05T08:58:27;24.10;;;12.63;;
19111;SDS011;9688;51.906;8.376;2022-12-05T09:01:14;27.80;;;13.50;;
19111;SDS011;9688;51.906;8.376;2022-12-05T09:04:04;27.97;;;13.77;;
19111;SDS011;9688;51.906;8.376;2022-12-05T09:06:55;23.60;;;12.63;;
19111;SDS011;9688;51.906;8.376;2022-12-05T09:09:40;23.80;;;12.53;;
19111;SDS011;9688;51.906;8.376;2022-12-05T09:12:34;28.80;;;13.83;;
19111;SDS011;9688;51.906;8.376;2022-12-05T09:15:22;25.90;;;13.00;;
19111;SDS011;9688;51.906;8.376;2022-12-05T09:18:07;53.80;;;24.23;;
19111;SDS011;9688;51.906;8.376;2022-12-05T09:20:53;27.10;;;13.30;;
19111;SDS011;9688;51.906;8.376;2022-12-05T09:23:38;22.93;;;12.00;;
19111;SDS011;9688;51.906;8.376;2022-12-05T09:26:29;24.47;;;12.60;;
19111;SDS011;9688;51.906;8.376;2022-12-05T09:29:16;23.87;;;12.47;;
19111;SDS011;9688;51.906;8.376;2022-12-05T09:32:04;24.90;;;12.77;;
19111;SDS011;9688;51.906;8.376;2022-12-05T09:34:51;28.87;;;14.00;;
19111;SDS011;9688;51.906;8.376;2022-12-05T09:37:37;24.83;;;12.50;;
19111;SDS011;9688;51.906;8.376;2022-12-05T09:40:23;24.50;;;13.30;;
19111;SDS011;9688;51.906;8.376;2022-12-05T09:43:12;23.67;;;12.77;;
19111;SDS011;9688;51.906;8.376;2022-12-05T09:46:12;24.03;;;12.47;;
19111;SDS011;9688;51.906;8.376;2022-12-05T09:49:07;25.87;;;12.97;;
19111;SDS011;9688;51.906;8.376;2022-12-05T09:51:57;25.07;;;13.13;;
19111;SDS011;9688;51.906;8.376;2022-12-05T09:54:44;27.37;;;13.30;;
19111;SDS011;9688;51.906;8.376;2022-12-05T09:57:33;28.60;;;14.27;;
19111;SDS011;9688;51.906;8.376;2022-12-05T10:00:23;30.17;;;13.80;;
19111;SDS011;9688;51.906;8.376;2022-12-05T10:03:17;26.30;;;13.40;;
19111;SDS011;9688;51.906;8.376;2022-12-05T10:06:14;37.80;;;17.47;;
19111;SDS011;9688;51.906;8.376;2022-12-05T10:09:11;33.73;;;15.40;;
19111;SDS011;9688;51.906;8.376;2022-12-05T10:12:10;31.37;;;13.83;;
19111;SDS011;9688;51.906;8.376;2022-12-05T10:15:07;33.73;;;15.87;;
19111;SDS011;9688;51.906;8.376;2022-12-05T10:18:00;32.70;;;16.37;;
19111;SDS011;9688;51.906;8.376;2022-12-05T10:20:54;33.70;;;16.40;;
19111;SDS011;9688;51.906;8.376;2022-12-05T10:23:51;30.17;;;16.97;;
19111;SDS011;9688;51.906;8.376;2022-12-05T10:26:42;31.20;;;16.80;;
19111;SDS011;9688;51.906;8.376;2022-12-05T10:29:30;37.70;;;17.97;;
19111;SDS011;9688;51.906;8.376;2022-12-05T10:32:20;32.00;;;15.93;;
19111;SDS011;9688;51.906;8.376;2022-12-05T10:35:17;33.40;;;16.10;;
19111;SDS011;9688;51.906;8.376;2022-12-05T10:38:09;36.63;;;16.40;;
19111;SDS011;9688;51.906;8.376;2022-12-05T10:41:02;27.90;;;15.70;;
19111;SDS011;9688;51.906;8.376;2022-12-05T10:43:54;29.33;;;15.60;;
19111;SDS011;9688;51.906;8.376;2022-12-05T10:46:45;27.90;;;14.63;;
19111;SDS011;9688;51.906;8.376;2022-12-05T10:49:35;24.57;;;13.33;;
19111;SDS011;9688;51.906;8.376;2022-12-05T10:52:22;21.87;;;12.47;;
19111;SDS011;9688;51.906;8.376;2022-12-05T10:55:12;22.03;;;13.50;;
19111;SDS011;9688;51.906;8.376;2022-12-05T10:58:13;23.47;;;13.33;;
19111;SDS011;9688;51.906;8.376;2022-12-05T11:01:06;26.57;;;13.93;;
19111;SDS011;9688;51.906;8.376;2022-12-05T11:03:55;24.63;;;13.87;;
19111;SDS011;9688;51.906;8.376;2022-12-05T11:06:48;22.93;;;13.40;;
19111;SDS011;9688;51.906;8.376;2022-12-05T11:09:36;24.57;;;11.60;;
19111;SDS011;9688;51.906;8.376;2022-12-05T11:12:23;21.97;;;12.60;;
19111;SDS011;9688;51.906;8.376;2022-12-05T11:15:20;17.67;;;10.80;;
19111;SDS011;9688;51.906;8.376;2022-12-05T11:18:17;17.23;;;11.40;;
19111;SDS011;9688;51.906;8.376;2022-12-05T11:21:08;19.30;;;12.20;;
19111;SDS011;9688;51.906;8.376;2022-12-05T11:23:56;21.63;;;11.93;;
19111;SDS011;9688;51.906;8.376;2022-12-05T11:26:49;21.07;;;11.03;;
19111;SDS011;9688;51.906;8.376;2022-12-05T11:29:36;25.17;;;12.37;;
19111;SDS011;9688;51.906;8.376;2022-12-05T11:32:25;20.20;;;11.70;;
19111;SDS011;9688;51.906;8.376;2022-12-05T11:35:17;18.93;;;11.13;;
19111;SDS011;9688;51.906;8.376;2022-12-05T11:38:08;20.27;;;11.93;;
19111;SDS011;9688;51.906;8.376;2022-12-05T11:40:59;19.60;;;10.20;;
19111;SDS011;9688;51.906;8.376;2022-12-05T11:44:00;16.97;;;10.37;;
19111;SDS011;9688;51.906;8.376;2022-12-05T11:46:59;16.23;;;9.97;;
19111;SDS011;9688;51.906;8.376;2022-12-05T11:50:06;20.63;;;10.17;;
19111;SDS011;9688;51.906;8.376;2022-12-05T11:53:07;15.57;;;9.73;;
19111;SDS011;9688;51.906;8.376;2022-12-05T11:56:14;15.20;;;9.47;;
19111;SDS011;9688;51.906;8.376;2022-12-05T11:59:20;13.77;;;9.00;;
19111;SDS011;9688;51.906;8.376;2022-12-05T12:02:22;15.40;;;9.37;;
19111;SDS011;9688;51.906;8.376;2022-12-05T12:05:19;13.40;;;8.93;;
19111;SDS011;9688;51.906;8.376;2022-12-05T12:08:14;15.77;;;9.03;;
19111;SDS011;9688;51.906;8.376;2022-12-05T12:11:08;15.60;;;9.07;;
19111;SDS011;9688;51.906;8.376;2022-12-05T12:14:05;17.20;;;10.27;;
19111;SDS011;9688;51.906;8.376;2022-12-05T12:17:02;13.00;;;8.13;;
19111;SDS011;9688;51.906;8.376;2022-12-05T12:20:03;15.30;;;8.30;;
19111;SDS011;9688;51.906;8.376;2022-12-05T12:23:08;12.23;;;8.10;;
19111;SDS011;9688;51.906;8.376;2022-12-05T12:26:10;13.07;;;9.27;;
19111;SDS011;9688;51.906;8.376;2022-12-05T12:29:02;11.37;;;7.47;;
19111;SDS011;9688;51.906;8.376;2022-12-05T12:32:02;13.23;;;7.87;;
19111;SDS011;9688;51.906;8.376;2022-12-05T12:35:08;13.63;;;8.83;;
19111;SDS011;9688;51.906;8.376;2022-12-05T12:38:13;13.30;;;8.43;;
19111;SDS011;9688;51.906;8.376;2022-12-05T12:41:17;13.53;;;8.43;;
19111;SDS011;9688;51.906;8.376;2022-12-05T12:44:40;12.40;;;8.00;;
19111;SDS011;9688;51.906;8.376;2022-12-05T12:47:43;12.63;;;7.00;;
19111;SDS011;9688;51.906;8.376;2022-12-05T12:50:39;10.77;;;7.77;;
19111;SDS011;9688;51.906;8.376;2022-12-05T12:56:59;10.83;;;7.50;;
19111;SDS011;9688;51.906;8.376;2022-12-05T12:59:57;9.40;;;7.27;;
19111;SDS011;9688;51.906;8.376;2022-12-05T13:02:56;10.30;;;7.57;;
19111;SDS011;9688;51.906;8.376;2022-12-05T13:05:48;8.93;;;7.40;;
19111;SDS011;9688;51.906;8.376;2022-12-05T13:08:39;11.17;;;8.00;;
19111;SDS011;9688;51.906;8.376;2022-12-05T13:11:28;11.70;;;8.07;;
19111;SDS011;9688;51.906;8.376;2022-12-05T13:14:23;11.10;;;7.83;;
19111;SDS011;9688;51.906;8.376;2022-12-05T13:17:11;12.57;;;7.53;;
19111;SDS011;9688;51.906;8.376;2022-12-05T13:20:09;14.07;;;8.13;;
19111;SDS011;9688;51.906;8.376;2022-12-05T13:23:03;18.27;;;10.07;;
19111;SDS011;9688;51.906;8.376;2022-12-05T13:25:53;16.63;;;8.70;;
19111;SDS011;9688;51.906;8.376;2022-12-05T13:28:47;14.30;;;9.27;;
19111;SDS011;9688;51.906;8.376;2022-12-05T13:31:37;14.90;;;10.20;;
19111;SDS011;9688;51.906;8.376;2022-12-05T13:34:34;10.47;;;7.83;;
19111;SDS011;9688;51.906;8.376;2022-12-05T13:37:29;12.93;;;8.47;;
19111;SDS011;9688;51.906;8.376;2022-12-05T13:40:33;12.90;;;7.87;;
19111;SDS011;9688;51.906;8.376;2022-12-05T13:43:40;14.73;;;9.90;;
19111;SDS011;9688;51.906;8.376;2022-12-05T13:46:30;11.20;;;7.97;;
19111;SDS011;9688;51.906;8.376;2022-12-05T13:49:22;12.57;;;9.27;;
19111;SDS011;9688;51.906;8.376;2022-12-05T13:52:17;14.10;;;9.27;;
19111;SDS011;9688;51.906;8.376;2022-12-05T13:55:13;13.17;;;7.83;;
19111;SDS011;9688;51.906;8.376;2022-12-05T13:58:32;10.30;;;7.47;;
19111;SDS011;9688;51.906;8.376;2022-12-05T14:07:38;11.33;;;8.70;;
19111;SDS011;9688;51.906;8.376;2022-12-05T14:13:51;11.93;;;7.97;;
19111;SDS011;9688;51.906;8.376;2022-12-05T14:16:40;12.93;;;8.30;;
19111;SDS011;9688;51.906;8.376;2022-12-05T14:22:49;13.30;;;8.40;;
19111;SDS011;9688;51.906;8.376;2022-12-05T14:25:59;11.13;;;8.43;;
19111;SDS011;9688;51.906;8.376;2022-12-05T14:29:00;11.93;;;8.00;;
19111;SDS011;9688;51.906;8.376;2022-12-05T14:32:04;10.13;;;7.00;;
19111;SDS011;9688;51.906;8.376;2022-12-05T14:35:03;11.77;;;7.70;;
19111;SDS011;9688;51.906;8.376;2022-12-05T14:38:00;9.53;;;7.80;;
19111;SDS011;9688;51.906;8.376;2022-12-05T14:40:49;10.63;;;7.20;;
19111;SDS011;9688;51.906;8.376;2022-12-05T14:43:35;10.27;;;7.83;;
19111;SDS011;9688;51.906;8.376;2022-12-05T14:46:24;13.03;;;9.00;;
19111;SDS011;9688;51.906;8.376;2022-12-05T14:52:22;12.50;;;8.57;;
19111;SDS011;9688;51.906;8.376;2022-12-05T14:55:11;14.13;;;9.10;;
19111;SDS011;9688;51.906;8.376;2022-12-05T14:58:00;16.73;;;9.43;;
19111;SDS011;9688;51.906;8.376;2022-12-05T15:00:53;12.37;;;8.83;;
19111;SDS011;9688;51.906;8.376;2022-12-05T15:03:41;13.67;;;8.90;;
19111;SDS011;9688;51.906;8.376;2022-12-05T15:06:51;15.03;;;9.87;;
19111;SDS011;9688;51.906;8.376;2022-12-05T15:09:42;12.53;;;8.93;;
19111;SDS011;9688;51.906;8.376;2022-12-05T15:12:38;15.30;;;9.63;;
19111;SDS011;9688;51.906;8.376;2022-12-05T15:15:32;11.80;;;8.90;;
19111;SDS011;9688;51.906;8.376;2022-12-05T15:18:26;11.73;;;8.23;;
19111;SDS011;9688;51.906;8.376;2022-12-05T15:21:20;13.43;;;9.07;;
19111;SDS011;9688;51.906;8.376;2022-12-05T15:24:11;13.13;;;8.93;;
19111;SDS011;9688;51.906;8.376;2022-12-05T15:26:59;13.43;;;9.00;;
19111;SDS011;9688;51.906;8.376;2022-12-05T15:29:52;11.37;;;8.00;;
19111;SDS011;9688;51.906;8.376;2022-12-05T15:32:41;10.07;;;8.10;;
19111;SDS011;9688;51.906;8.376;2022-12-05T15:35:29;11.03;;;8.20;;
19111;SDS011;9688;51.906;8.376;2022-12-05T15:38:18;12.83;;;8.77;;
19111;SDS011;9688;51.906;8.376;2022-12-05T15:41:14;12.87;;;8.87;;
19111;SDS011;9688;51.906;8.376;2022-12-05T15:44:03;11.73;;;7.60;;
19111;SDS011;9688;51.906;8.376;2022-12-05T15:46:55;13.73;;;8.50;;
19111;SDS011;9688;51.906;8.376;2022-12-05T15:49:45;12.33;;;8.53;;
19111;SDS011;9688;51.906;8.376;2022-12-05T15:52:36;10.17;;;8.23;;
19111;SDS011;9688;51.906;8.376;2022-12-05T15:55:28;13.17;;;8.53;;
19111;SDS011;9688;51.906;8.376;2022-12-05T15:58:22;11.73;;;7.83;;
19111;SDS011;9688;51.906;8.376;2022-12-05T16:01:10;14.57;;;9.50;;
19111;SDS011;9688;51.906;8.376;2022-12-05T16:04:03;12.63;;;8.47;;
19111;SDS011;9688;51.906;8.376;2022-12-05T16:06:57;16.00;;;9.57;;
19111;SDS011;9688;51.906;8.376;2022-12-05T16:09:48;14.63;;;9.50;;
19111;SDS011;9688;51.906;8.376;2022-12-05T16:12:36;16.53;;;10.13;;
19111;SDS011;9688;51.906;8.376;2022-12-05T16:15:24;10.73;;;8.43;;
19111;SDS011;9688;51.906;8.376;2022-12-05T16:18:24;13.50;;;8.83;;
19111;SDS011;9688;51.906;8.376;2022-12-05T16:24:06;12.73;;;8.43;;
19111;SDS011;9688;51.906;8.376;2022-12-05T16:27:01;12.47;;;8.40;;
19111;SDS011;9688;51.906;8.376;2022-12-05T16:30:05;12.50;;;8.77;;
19111;SDS011;9688;51.906;8.376;2022-12-05T16:32:58;11.60;;;8.67;;
19111;SDS011;9688;51.906;8.376;2022-12-05T16:35:49;12.80;;;8.60;;
19111;SDS011;9688;51.906;8.376;2022-12-05T16:38:35;10.73;;;8.40;;
19111;SDS011;9688;51.906;8.376;2022-12-05T16:41:27;14.43;;;9.13;;
19111;SDS011;9688;51.906;8.376;2022-12-05T16:47:51;18.47;;;10.70;;
19111;SDS011;9688;51.906;8.376;2022-12-05T16:50:39;13.47;;;9.23;;
19111;SDS011;9688;51.906;8.376;2022-12-05T16:53:28;16.33;;;10.17;;
19111;SDS011;9688;51.906;8.376;2022-12-05T16:56:17;16.77;;;10.53;;
19111;SDS011;9688;51.906;8.376;2022-12-05T16:59:11;16.73;;;10.87;;
19111;SDS011;9688;51.906;8.376;2022-12-05T17:02:09;15.80;;;9.73;;
19111;SDS011;9688;51.906;8.376;2022-12-05T17:04:59;17.27;;;10.43;;
19111;SDS011;9688;51.906;8.376;2022-12-05T17:07:57;18.60;;;10.30;;
19111;SDS011;9688;51.906;8.376;2022-12-05T17:10:42;15.10;;;10.27;;
19111;SDS011;9688;51.906;8.376;2022-12-05T17:13:28;15.50;;;10.63;;
19111;SDS011;9688;51.906;8.376;2022-12-05T17:16:17;18.93;;;11.33;;
19111;SDS011;9688;51.906;8.376;2022-12-05T17:19:04;16.67;;;11.00;;
19111;SDS011;9688;51.906;8.376;2022-12-05T17:21:50;18.70;;;11.53;;
19111;SDS011;9688;51.906;8.376;2022-12-05T17:24:40;16.87;;;10.90;;
19111;SDS011;9688;51.906;8.376;2022-12-05T17:27:27;20.80;;;11.47;;
19111;SDS011;9688;51.906;8.376;2022-12-05T17:30:14;16.17;;;10.07;;